Time;durP1;ratioP1;P1;durP2;ratioP2;P2;SDS_P1;SDS_P2;PMS_P1;PMS_P2;Temp;Humidity;BMP_temperature;BMP_pressure;BME280_temperature;BME280_humidity;BME280_pressure;Samples;Min_cycle;Max_cycle;Signal;HPM_P1;HPM_P2
2021/08/17 00:00:41;;;;;;;10.85;2.80;;;12.90;99.90;;;;;;12529774;28;20108;-82
2021/08/17 00:06:44;;;;;;;12.13;2.95;;;12.80;99.90;;;;;;12521506;28;20514;-83
2021/08/17 00:12:45;;;;;;;11.52;2.70;;;12.90;99.90;;;;;;12533532;28;20037;-83
2021/08/17 00:18:47;;;;;;;12.18;2.75;;;12.90;99.90;;;;;;12529052;28;20456;-85
2021/08/17 00:24:50;;;;;;;16.35;3.33;;;13.00;99.90;;;;;;12528234;28;20115;-83
2021/08/17 00:30:52;;;;;;;11.38;3.13;;;13.00;99.90;;;;;;12533046;28;20902;-83
2021/08/17 00:36:55;;;;;;;14.57;3.00;;;13.00;99.90;;;;;;12536095;28;20101;-83
2021/08/17 00:42:57;;;;;;;16.48;3.35;;;13.10;99.90;;;;;;12532193;28;20046;-84
2021/08/17 00:48:59;;;;;;;13.98;3.35;;;13.20;99.90;;;;;;12541456;28;20053;-83
2021/08/17 00:55:01;;;;;;;12.27;2.88;;;13.20;99.90;;;;;;12552287;28;20108;-84
2021/08/17 01:01:03;;;;;;;13.07;3.75;;;13.10;99.90;;;;;;12544454;28;20048;-83
2021/08/17 01:07:09;;;;;;;11.30;3.10;;;13.30;99.90;;;;;;12533542;28;20049;-85
2021/08/17 01:13:11;;;;;;;18.98;3.83;;;13.20;99.90;;;;;;12533284;28;20318;-83
2021/08/17 01:19:15;;;;;;;16.38;3.30;;;13.20;99.90;;;;;;12523861;28;20465;-83
2021/08/17 01:25:17;;;;;;;14.50;3.33;;;13.20;99.90;;;;;;12517882;28;20045;-82
2021/08/17 01:31:18;;;;;;;8.30;2.83;;;13.20;99.90;;;;;;12534026;28;20075;-82
2021/08/17 01:37:20;;;;;;;18.20;3.50;;;13.30;99.90;;;;;;12533822;28;20071;-84
2021/08/17 01:43:22;;;;;;;14.45;3.13;;;13.30;99.90;;;;;;12535083;28;20049;-82
2021/08/17 01:49:24;;;;;;;14.98;3.15;;;13.30;99.90;;;;;;12553572;28;20098;-84
2021/08/17 01:55:26;;;;;;;19.70;3.10;;;13.30;99.90;;;;;;12539588;28;20113;-83
2021/08/17 02:01:28;;;;;;;12.30;3.33;;;13.30;99.90;;;;;;12533136;28;20048;-84
2021/08/17 02:07:30;;;;;;;13.73;3.03;;;13.30;99.90;;;;;;12535430;28;20413;-84
2021/08/17 02:13:32;;;;;;;11.98;3.20;;;13.30;99.90;;;;;;12532056;28;20056;-83
2021/08/17 02:19:34;;;;;;;12.70;2.85;;;13.30;99.90;;;;;;12538451;28;20159;-84
2021/08/17 02:25:36;;;;;;;17.40;3.42;;;13.30;99.90;;;;;;12537571;28;20074;-82
2021/08/17 02:31:38;;;;;;;12.45;3.15;;;13.30;99.90;;;;;;12514323;28;20045;-84
2021/08/17 02:37:39;;;;;;;12.57;2.97;;;13.30;99.90;;;;;;12520555;28;20145;-84
2021/08/17 02:43:41;;;;;;;15.00;3.03;;;13.30;99.90;;;;;;12520039;28;20128;-84
2021/08/17 02:49:43;;;;;;;11.02;2.72;;;13.30;99.90;;;;;;12529655;28;20080;-83
2021/08/17 02:55:45;;;;;;;14.60;3.03;;;13.30;99.90;;;;;;12525699;28;20777;-85
2021/08/17 03:01:47;;;;;;;7.38;2.20;;;13.10;99.90;;;;;;12526766;28;20410;-84
2021/08/17 03:08:03;;;;;;;12.27;3.20;;;13.30;99.90;;;;;;12527823;28;20072;-83
2021/08/17 03:14:05;;;;;;;9.75;2.53;;;13.30;99.90;;;;;;12530047;28;20044;-84
2021/08/17 03:20:09;;;;;;;11.32;2.95;;;13.30;99.90;;;;;;12523892;28;20052;-83
2021/08/17 03:26:11;;;;;;;12.88;2.45;;;13.20;99.90;;;;;;12531463;28;20049;-83
2021/08/17 03:32:13;;;;;;;16.63;3.03;;;13.30;99.90;;;;;;12511387;28;20041;-84
2021/08/17 03:38:15;;;;;;;12.27;2.63;;;13.20;99.90;;;;;;12527141;28;20048;-83
2021/08/17 03:44:16;;;;;;;12.00;2.53;;;13.20;99.90;;;;;;12525547;28;20041;-83
2021/08/17 03:50:19;;;;;;;12.65;2.22;;;13.10;99.90;;;;;;12522027;28;20331;-83
2021/08/17 03:56:20;;;;;;;13.73;2.38;;;12.90;99.90;;;;;;12518298;28;20053;-84
2021/08/17 04:02:22;;;;;;;15.40;2.45;;;13.00;99.90;;;;;;12530142;28;20053;-83
2021/08/17 04:08:24;;;;;;;10.75;2.17;;;12.90;99.90;;;;;;12529335;28;20053;-84
2021/08/17 04:14:26;;;;;;;10.50;2.53;;;13.00;99.90;;;;;;12529018;28;20106;-83
2021/08/17 04:20:30;;;;;;;7.18;1.90;;;13.00;99.90;;;;;;12522855;28;20505;-83
2021/08/17 04:26:32;;;;;;;11.37;2.50;;;13.00;99.90;;;;;;12527563;28;20143;-83
2021/08/17 04:32:34;;;;;;;13.18;2.30;;;12.90;99.90;;;;;;12524781;28;20420;-83
2021/08/17 04:38:35;;;;;;;9.88;1.85;;;12.80;99.90;;;;;;12529219;28;20471;-84
2021/08/17 04:44:37;;;;;;;9.20;2.17;;;12.90;99.90;;;;;;12525670;28;20053;-83
2021/08/17 04:50:39;;;;;;;16.00;2.28;;;12.90;99.90;;;;;;12533330;28;20094;-84
2021/08/17 04:56:41;;;;;;;9.73;2.17;;;13.10;99.90;;;;;;12539422;28;20411;-83
2021/08/17 05:02:43;;;;;;;9.38;2.03;;;13.00;99.90;;;;;;12535404;28;20878;-82
2021/08/17 05:08:45;;;;;;;14.10;2.35;;;13.00;99.90;;;;;;12550035;28;20049;-83
2021/08/17 05:14:46;;;;;;;11.60;1.85;;;13.10;99.90;;;;;;12548357;28;20049;-84
2021/08/17 05:20:57;;;;;;;10.70;2.30;;;13.20;99.90;;;;;;12572506;28;20176;-85
2021/08/17 05:26:59;;;;;;;9.45;1.85;;;13.20;99.90;;;;;;12538842;28;20056;-83
2021/08/17 05:33:00;;;;;;;8.30;1.90;;;13.20;99.90;;;;;;12540350;28;20052;-83
2021/08/17 05:39:02;;;;;;;10.32;2.20;;;13.30;99.90;;;;;;12553555;28;20056;-82
2021/08/17 05:45:05;;;;;;;12.52;2.05;;;13.40;99.90;;;;;;12552204;28;20044;-84
2021/08/17 05:51:07;;;;;;;9.63;1.75;;;13.40;99.90;;;;;;12538990;28;20037;-84
2021/08/17 05:57:09;;;;;;;10.93;2.38;;;13.40;99.90;;;;;;12550371;28;20057;-83
2021/08/17 06:03:11;;;;;;;9.90;2.03;;;13.50;99.90;;;;;;12531785;28;20093;-84
2021/08/17 06:09:14;;;;;;;16.08;1.58;;;13.40;99.90;;;;;;12534562;28;20200;-83
2021/08/17 06:15:15;;;;;;;11.25;2.00;;;13.50;99.90;;;;;;12543736;28;20098;-83
2021/08/17 06:21:17;;;;;;;8.85;1.80;;;13.50;99.90;;;;;;12544002;28;20052;-84
2021/08/17 06:27:19;;;;;;;10.32;1.88;;;13.70;99.90;;;;;;12536420;28;20649;-82
2021/08/17 06:33:24;;;;;;;11.55;1.88;;;13.60;99.90;;;;;;12540652;28;20040;-83
2021/08/17 06:39:26;;;;;;;10.98;1.77;;;13.80;99.90;;;;;;12539969;28;20409;-83
2021/08/17 06:45:31;;;;;;;10.50;1.95;;;13.70;99.90;;;;;;12544235;28;20102;-82
2021/08/17 06:51:32;;;;;;;9.27;1.85;;;13.80;99.90;;;;;;12531635;28;20049;-82
2021/08/17 06:57:34;;;;;;;7.07;1.65;;;14.00;99.90;;;;;;12539981;28;20053;-82
2021/08/17 07:03:36;;;;;;;9.35;2.38;;;14.10;99.90;;;;;;12534499;28;20041;-83
2021/08/17 07:09:38;;;;;;;8.70;2.10;;;14.20;99.90;;;;;;12534580;28;20561;-83
2021/08/17 07:15:40;;;;;;;9.40;1.88;;;14.30;99.90;;;;;;12532786;28;20045;-83
2021/08/17 07:21:42;;;;;;;11.65;2.25;;;14.40;99.90;;;;;;12541949;28;20536;-82
2021/08/17 07:27:44;;;;;;;11.07;2.28;;;14.60;99.90;;;;;;12539941;28;20078;-81
2021/08/17 07:33:46;;;;;;;10.13;2.28;;;14.70;99.90;;;;;;12548762;28;20045;-84
2021/08/17 07:39:48;;;;;;;7.20;2.10;;;14.80;99.90;;;;;;12536616;28;20052;-84
2021/08/17 07:45:49;;;;;;;13.32;2.92;;;14.90;99.90;;;;;;12535008;28;20041;-84
2021/08/17 07:52:11;;;;;;;8.13;2.30;;;15.00;99.90;;;;;;12536262;28;20044;-83
2021/08/17 07:58:13;;;;;;;9.48;2.83;;;15.00;99.90;;;;;;12541644;28;20045;-84
2021/08/17 08:04:15;;;;;;;11.30;2.85;;;15.20;99.90;;;;;;12521066;28;20095;-84
2021/08/17 08:10:17;;;;;;;8.45;3.28;;;15.40;99.90;;;;;;12525873;28;20114;-86
2021/08/17 08:16:19;;;;;;;14.27;3.25;;;15.40;99.90;;;;;;12540305;28;20513;-84
2021/08/17 08:22:21;;;;;;;7.45;2.95;;;15.30;99.90;;;;;;12535724;28;20052;-84
2021/08/17 08:28:23;;;;;;;11.20;2.63;;;15.30;99.90;;;;;;12539033;28;20100;-84
2021/08/17 08:34:27;;;;;;;5.97;3.15;;;15.60;99.90;;;;;;12539063;28;20044;-84
2021/08/17 08:40:30;;;;;;;11.88;3.30;;;15.60;99.90;;;;;;12539792;28;20071;-83
2021/08/17 08:46:34;;;;;;;12.00;3.10;;;15.60;99.90;;;;;;12537277;28;20128;-83
2021/08/17 08:52:36;;;;;;;8.98;3.40;;;15.80;99.90;;;;;;12538413;28;20628;-83
2021/08/17 08:58:39;;;;;;;11.55;3.83;;;15.80;99.90;;;;;;12533161;28;20049;-84
2021/08/17 09:04:53;;;;;;;9.48;3.58;;;16.00;99.90;;;;;;12547969;28;20070;-82
2021/08/17 09:11:20;;;;;;;8.80;3.25;;;16.10;99.90;;;;;;12513052;28;20117;-83
2021/08/17 09:17:22;;;;;;;9.93;3.38;;;16.10;99.90;;;;;;12538579;28;20381;-84
2021/08/17 09:23:35;;;;;;;11.85;3.75;;;16.10;99.90;;;;;;12534477;28;20079;-83
2021/08/17 09:29:42;;;;;;;9.27;3.95;;;16.30;99.90;;;;;;12531976;28;20060;-84
2021/08/17 09:35:44;;;;;;;7.43;3.40;;;16.40;99.90;;;;;;12519846;28;20075;-84
2021/08/17 09:41:49;;;;;;;13.85;5.07;;;16.40;99.90;;;;;;12527453;28;20053;-84
2021/08/17 09:47:56;;;;;;;12.25;5.07;;;16.50;99.90;;;;;;12530070;28;20064;-83
2021/08/17 09:54:12;;;;;;;11.02;4.75;;;16.60;99.90;;;;;;12545398;28;20037;-84
2021/08/17 10:00:16;;;;;;;11.50;5.50;;;16.60;99.90;;;;;;12567200;28;20137;-85
2021/08/17 10:06:18;;;;;;;10.00;5.30;;;16.70;99.90;;;;;;12541484;28;20041;-85
2021/08/17 10:12:20;;;;;;;12.77;5.80;;;16.70;99.90;;;;;;12546073;28;20096;-83
2021/08/17 10:18:25;;;;;;;15.23;6.30;;;16.40;99.90;;;;;;12538760;28;20143;-84
2021/08/17 10:24:36;;;;;;;14.32;6.15;;;16.40;99.90;;;;;;12545620;28;20132;-84
2021/08/17 10:30:38;;;;;;;12.70;6.00;;;16.50;99.90;;;;;;12536697;28;20038;-83
2021/08/17 10:36:45;;;;;;;15.52;7.45;;;16.50;99.90;;;;;;12543209;28;20084;-83
2021/08/17 10:42:51;;;;;;;13.02;7.10;;;16.70;99.90;;;;;;12542688;28;20134;-83
2021/08/17 10:48:55;;;;;;;12.68;7.03;;;16.90;99.90;;;;;;12554041;28;20385;-84
2021/08/17 10:55:22;;;;;;;19.00;8.32;;;17.10;99.90;;;;;;12533303;28;20055;-83
2021/08/17 11:01:30;;;;;;;15.70;8.05;;;17.30;99.90;;;;;;12533481;28;20053;-83
2021/08/17 11:07:33;;;;;;;16.75;8.18;;;17.40;99.90;;;;;;12552664;28;20412;-84
2021/08/17 11:13:35;;;;;;;20.08;9.05;;;17.30;99.90;;;;;;12531381;28;20053;-84
2021/08/17 11:19:45;;;;;;;16.95;8.88;;;17.10;99.90;;;;;;12530750;28;20123;-84
2021/08/17 11:25:47;;;;;;;18.33;8.57;;;17.00;99.90;;;;;;12533019;28;20134;-84
2021/08/17 11:31:49;;;;;;;20.08;9.52;;;17.50;99.90;;;;;;12519563;28;20072;-84
2021/08/17 11:37:55;;;;;;;17.48;9.20;;;17.70;99.90;;;;;;12526109;28;20501;-85
2021/08/17 11:44:13;;;;;;;18.27;9.68;;;17.80;99.90;;;;;;12535366;28;20098;-84
2021/08/17 11:50:18;;;;;;;20.02;10.10;;;18.00;99.90;;;;;;12545957;28;20041;-85
2021/08/17 11:56:20;;;;;;;17.30;9.93;;;18.00;99.90;;;;;;12523119;28;20052;-83
2021/08/17 12:02:26;;;;;;;20.83;10.60;;;18.00;99.90;;;;;;12543654;28;20171;-85
2021/08/17 12:08:28;;;;;;;19.20;9.43;;;17.90;99.90;;;;;;12521507;28;20631;-85
2021/08/17 12:14:30;;;;;;;18.83;10.00;;;17.80;99.90;;;;;;12533326;28;20139;-85
2021/08/17 12:20:34;;;;;;;17.27;9.18;;;17.90;99.90;;;;;;12536513;28;20530;-82
2021/08/17 12:26:36;;;;;;;24.73;9.93;;;18.00;99.90;;;;;;12519322;28;20922;-84
2021/08/17 12:32:38;;;;;;;17.73;11.15;;;18.00;99.90;;;;;;12529047;28;20128;-84
2021/08/17 12:38:40;;;;;;;25.70;12.52;;;17.90;99.90;;;;;;12520063;28;20049;-84
2021/08/17 12:44:42;;;;;;;22.67;12.10;;;17.40;99.90;;;;;;12532271;28;20137;-85
2021/08/17 12:50:47;;;;;;;22.48;11.45;;;17.40;99.90;;;;;;12536243;28;20135;-84
2021/08/17 12:56:49;;;;;;;21.65;10.10;;;17.70;99.90;;;;;;12538226;28;20056;-84
2021/08/17 13:02:52;;;;;;;24.70;11.70;;;17.70;99.90;;;;;;12525416;28;20052;-85
2021/08/17 13:08:54;;;;;;;26.48;12.55;;;17.20;99.90;;;;;;12531503;28;20045;-83
2021/08/17 13:14:57;;;;;;;24.52;11.90;;;16.40;99.90;;;;;;12559225;28;20530;-84
2021/08/17 13:20:59;;;;;;;27.47;12.73;;;15.90;99.90;;;;;;12533246;28;20648;-84
2021/08/17 13:27:01;;;;;;;25.35;12.15;;;15.60;99.90;;;;;;12543589;28;20102;-83
2021/08/17 13:33:03;;;;;;;24.95;12.27;;;15.60;99.90;;;;;;12546779;28;20105;-84
2021/08/17 13:39:05;;;;;;;33.05;14.27;;;15.40;99.90;;;;;;12551421;28;20195;-84
2021/08/17 13:45:07;;;;;;;28.05;14.82;;;15.80;99.90;;;;;;12542018;28;20087;-83
2021/08/17 13:51:10;;;;;;;27.08;15.07;;;15.60;99.90;;;;;;12543037;28;20044;-83
2021/08/17 13:57:12;;;;;;;26.52;14.10;;;15.70;99.90;;;;;;12539243;28;20150;-83
2021/08/17 14:03:14;;;;;;;26.27;14.23;;;15.80;99.90;;;;;;12543542;28;20049;-85
2021/08/17 14:09:16;;;;;;;25.80;13.32;;;15.80;99.90;;;;;;12532084;28;20140;-84
2021/08/17 14:15:18;;;;;;;27.35;13.45;;;15.80;99.90;;;;;;12530435;28;20060;-82
2021/08/17 14:21:22;;;;;;;28.30;12.88;;;16.00;99.90;;;;;;12535160;28;20056;-81
2021/08/17 14:27:24;;;;;;;24.30;11.88;;;16.60;99.90;;;;;;12532864;28;20176;-82
2021/08/17 14:33:27;;;;;;;20.10;11.30;;;16.80;99.90;;;;;;12527718;28;20074;-83
2021/08/17 14:39:29;;;;;;;21.90;9.48;;;16.70;99.90;;;;;;12535685;28;20091;-83
2021/08/17 14:45:32;;;;;;;14.23;8.18;;;16.80;99.90;;;;;;12536891;28;20079;-83
2021/08/17 14:51:33;;;;;;;11.45;6.65;;;16.60;99.90;;;;;;12536122;28;20044;-84
2021/08/17 14:57:35;;;;;;;12.77;7.47;;;16.20;99.90;;;;;;12537074;28;20052;-84
2021/08/17 15:03:37;;;;;;;13.77;7.22;;;16.00;99.90;;;;;;12538216;28;20052;-84
2021/08/17 15:09:40;;;;;;;13.50;7.00;;;15.80;99.90;;;;;;12534406;28;20057;-83
2021/08/17 15:15:45;;;;;;;15.00;8.75;;;15.60;99.90;;;;;;12536272;28;20140;-82
2021/08/17 15:21:47;;;;;;;14.32;9.02;;;15.30;99.90;;;;;;12526829;28;20131;-84
2021/08/17 15:27:50;;;;;;;15.55;8.38;;;15.20;99.90;;;;;;12523513;28;20044;-83
2021/08/17 15:33:53;;;;;;;18.03;9.40;;;15.50;99.90;;;;;;12537974;28;20119;-84
2021/08/17 15:39:55;;;;;;;14.38;9.15;;;15.60;99.90;;;;;;12539833;28;20049;-82
2021/08/17 15:45:57;;;;;;;15.65;9.52;;;15.60;99.90;;;;;;12528225;28;20040;-84
2021/08/17 15:51:59;;;;;;;15.40;9.48;;;15.90;99.90;;;;;;12534904;28;20040;-83
2021/08/17 15:58:01;;;;;;;13.93;10.05;;;15.70;99.90;;;;;;12531508;28;20159;-82
2021/08/17 16:04:03;;;;;;;18.85;10.55;;;15.60;99.90;;;;;;12525084;28;20473;-83
2021/08/17 16:10:06;;;;;;;16.52;10.05;;;15.70;99.90;;;;;;12529601;28;20094;-84
2021/08/17 16:16:08;;;;;;;18.92;10.43;;;15.50;99.90;;;;;;12526841;28;20045;-84
2021/08/17 16:22:10;;;;;;;13.98;10.88;;;15.40;99.90;;;;;;12532371;28;20188;-82
2021/08/17 16:28:11;;;;;;;14.77;9.50;;;15.40;99.90;;;;;;12530581;28;20102;-83
2021/08/17 16:34:13;;;;;;;12.73;8.57;;;15.50;99.90;;;;;;12526780;28;20087;-82
2021/08/17 16:40:15;;;;;;;14.32;8.63;;;15.50;99.90;;;;;;12533719;28;20790;-82
2021/08/17 16:46:17;;;;;;;12.02;7.80;;;15.40;99.90;;;;;;12535216;28;20135;-84
2021/08/17 16:52:19;;;;;;;10.48;7.45;;;15.80;99.90;;;;;;12529359;28;20138;-84
2021/08/17 16:58:21;;;;;;;9.15;6.50;;;15.80;99.90;;;;;;12527204;28;20627;-84
2021/08/17 17:04:23;;;;;;;8.73;5.90;;;15.70;99.90;;;;;;12536846;28;20099;-84
2021/08/17 17:10:24;;;;;;;10.25;6.50;;;15.60;99.90;;;;;;12537064;28;20041;-84
2021/08/17 17:16:27;;;;;;;10.02;6.38;;;15.50;99.90;;;;;;12538607;28;20082;-82
2021/08/17 17:22:29;;;;;;;10.82;6.43;;;15.30;99.90;;;;;;12544148;28;20052;-84
2021/08/17 17:28:31;;;;;;;9.43;6.05;;;15.20;99.90;;;;;;12539821;28;20535;-85
2021/08/17 17:34:33;;;;;;;9.07;5.68;;;15.30;99.90;;;;;;12539620;28;20044;-83
2021/08/17 17:40:35;;;;;;;10.30;6.22;;;15.20;99.90;;;;;;12555343;28;20081;-83
2021/08/17 17:46:37;;;;;;;9.95;6.68;;;15.20;99.90;;;;;;12564458;28;20270;-84
2021/08/17 17:52:42;;;;;;;9.52;6.82;;;15.10;99.90;;;;;;12551800;28;20044;-82
2021/08/17 17:58:46;;;;;;;12.73;7.30;;;15.10;99.90;;;;;;12540918;28;20747;-83
2021/08/17 18:04:48;;;;;;;13.82;7.30;;;15.20;99.90;;;;;;12541709;28;20071;-83
2021/08/17 18:10:51;;;;;;;12.52;7.57;;;15.20;99.90;;;;;;12539259;28;20879;-83
2021/08/17 18:16:53;;;;;;;10.73;7.35;;;15.10;99.90;;;;;;12530658;28;20108;-84
2021/08/17 18:22:58;;;;;;;11.35;8.05;;;15.00;99.90;;;;;;12543901;28;20151;-83
2021/08/17 18:29:01;;;;;;;11.27;8.40;;;15.10;99.90;;;;;;12536520;28;20060;-84
2021/08/17 18:35:06;;;;;;;11.97;9.00;;;15.00;99.90;;;;;;12537280;28;20048;-82
2021/08/17 18:41:07;;;;;;;;;;;14.80;99.90;;;;;;12530248;28;20049;-85
2021/08/17 18:47:09;;;;;;;11.55;9.13;;;14.70;99.90;;;;;;12535478;28;20565;-81
2021/08/17 18:53:11;;;;;;;14.27;10.18;;;14.60;99.90;;;;;;12540208;28;20497;-83
2021/08/17 18:59:13;;;;;;;11.30;10.10;;;14.70;99.90;;;;;;12532919;28;20083;-83
2021/08/17 19:05:15;;;;;;;13.27;11.13;;;14.80;99.90;;;;;;12529550;28;20040;-84
2021/08/17 19:11:17;;;;;;;12.88;9.52;;;14.60;99.90;;;;;;12525596;28;20048;-82
2021/08/17 19:17:19;;;;;;;11.02;9.45;;;14.50;99.90;;;;;;12531596;28;20090;-84
2021/08/17 19:23:22;;;;;;;12.15;7.93;;;14.40;99.90;;;;;;12526467;28;20044;-82
2021/08/17 19:29:24;;;;;;;8.07;6.20;;;14.40;99.90;;;;;;12532384;28;20053;-83
2021/08/17 19:35:26;;;;;;;9.10;6.75;;;14.50;99.90;;;;;;12527568;28;20077;-83
2021/08/17 19:41:28;;;;;;;7.88;6.90;;;14.30;99.90;;;;;;12528794;28;20057;-83
2021/08/17 19:47:31;;;;;;;8.77;6.78;;;14.10;99.90;;;;;;12528344;28;20070;-83
2021/08/17 19:53:33;;;;;;;7.47;6.20;;;14.00;99.90;;;;;;12526508;28;20052;-83
2021/08/17 19:59:36;;;;;;;8.13;6.20;;;13.90;99.90;;;;;;12530527;28;20056;-83
2021/08/17 20:05:38;;;;;;;7.40;6.00;;;14.00;99.90;;;;;;12545237;28;20053;-83
2021/08/17 20:11:40;;;;;;;6.78;5.82;;;14.00;99.90;;;;;;12532938;28;20131;-84
2021/08/17 20:17:42;;;;;;;8.15;6.72;;;14.10;99.90;;;;;;12526322;28;20087;-83
2021/08/17 20:23:48;;;;;;;9.52;7.70;;;14.00;99.90;;;;;;12529191;28;20780;-82
2021/08/17 20:29:50;;;;;;;12.15;7.97;;;14.10;99.90;;;;;;12526772;28;20501;-83
2021/08/17 20:35:52;;;;;;;11.40;10.00;;;14.00;99.90;;;;;;12527514;28;20090;-84
2021/08/17 20:41:55;;;;;;;12.25;10.77;;;14.00;99.90;;;;;;12527526;28;20051;-82
2021/08/17 20:47:56;;;;;;;14.77;12.88;;;13.90;99.90;;;;;;12532737;28;20045;-82
2021/08/17 20:53:58;;;;;;;15.27;13.10;;;13.90;99.90;;;;;;12525557;28;20048;-84
2021/08/17 21:00:00;;;;;;;17.98;14.60;;;13.90;99.90;;;;;;12530494;28;20547;-83
2021/08/17 21:06:02;;;;;;;17.75;14.50;;;13.80;99.90;;;;;;12528613;28;20105;-84
2021/08/17 21:12:04;;;;;;;17.15;15.32;;;13.80;99.90;;;;;;12527395;28;20121;-84
2021/08/17 21:18:06;;;;;;;18.92;16.52;;;13.70;99.90;;;;;;12526898;28;20386;-83
2021/08/17 21:24:08;;;;;;;19.35;16.63;;;13.70;99.90;;;;;;12528479;28;20082;-83
2021/08/17 21:30:11;;;;;;;18.73;16.48;;;13.70;99.90;;;;;;12532175;28;20108;-83
2021/08/17 21:36:13;;;;;;;16.80;15.00;;;13.70;99.90;;;;;;12540887;28;20048;-83
2021/08/17 21:42:20;;;;;;;17.10;15.00;;;13.60;99.90;;;;;;12524721;28;20084;-83
2021/08/17 21:48:22;;;;;;;18.13;15.30;;;13.60;99.90;;;;;;12532811;28;20437;-82
2021/08/17 21:54:23;;;;;;;19.48;15.73;;;13.50;99.90;;;;;;12531534;28;20041;-83
2021/08/17 22:00:26;;;;;;;19.25;16.20;;;13.60;99.90;;;;;;12529133;28;20074;-82
2021/08/17 22:06:31;;;;;;;19.25;16.90;;;13.60;99.90;;;;;;12532759;28;20072;-82
2021/08/17 22:12:33;;;;;;;;;;;13.60;99.90;;;;;;12533455;28;20048;-83
2021/08/17 22:18:35;;;;;;;21.88;18.85;;;13.60;99.90;;;;;;12546360;28;19971;-83
2021/08/17 22:24:38;;;;;;;25.57;19.93;;;13.60;99.90;;;;;;12533531;28;20053;-83
2021/08/17 22:30:40;;;;;;;23.02;18.60;;;13.50;99.90;;;;;;12526551;28;20050;-84
2021/08/17 22:36:42;;;;;;;23.33;18.85;;;13.50;99.90;;;;;;12528011;28;20083;-83
2021/08/17 22:42:44;;;;;;;25.23;19.38;;;13.60;99.90;;;;;;12529101;28;20052;-84
2021/08/17 22:48:46;;;;;;;26.73;20.20;;;13.50;99.90;;;;;;12548488;28;20053;-84
2021/08/17 22:54:48;;;;;;;27.08;20.95;;;13.60;99.90;;;;;;12529181;28;20115;-83
2021/08/17 23:00:49;;;;;;;29.13;21.50;;;13.60;99.90;;;;;;12528263;28;20622;-84
2021/08/17 23:06:52;;;;;;;26.33;20.20;;;13.50;99.90;;;;;;12532894;28;20048;-85
2021/08/17 23:12:53;;;;;;;27.45;20.73;;;13.60;99.90;;;;;;12523026;28;20051;-84
2021/08/17 23:18:56;;;;;;;24.38;20.17;;;13.60;99.90;;;;;;12529824;28;20052;-83
2021/08/17 23:24:59;;;;;;;24.30;19.23;;;13.60;99.90;;;;;;12532850;28;20049;-83
2021/08/17 23:31:01;;;;;;;26.58;19.58;;;13.60;99.90;;;;;;12514219;28;20045;-85
2021/08/17 23:37:03;;;;;;;23.50;18.75;;;13.60;99.90;;;;;;12533956;28;20049;-84
2021/08/17 23:43:05;;;;;;;23.98;19.00;;;13.60;99.90;;;;;;12530128;28;20516;-83
2021/08/17 23:49:07;;;;;;;26.73;18.65;;;13.50;99.90;;;;;;12533094;28;20114;-84
2021/08/17 23:55:09;;;;;;;24.00;17.98;;;13.50;99.90;;;;;;12531896;28;20049;-85
